createdAt,value
2023-04-24T00:00:06.744Z,10.81
2023-04-24T00:01:06.758Z,10.92
2023-04-24T00:02:06.796Z,10.78
2023-04-24T00:03:06.835Z,10.81
2023-04-24T00:04:07.026Z,10.75
2023-04-24T00:05:06.785Z,10.76
2023-04-24T00:06:06.744Z,10.92
2023-04-24T00:07:06.710Z,10.90
2023-04-24T00:08:06.684Z,10.81
2023-04-24T00:09:06.696Z,10.78
2023-04-24T00:10:06.665Z,10.87
2023-04-24T00:11:06.685Z,10.76
2023-04-24T00:12:06.672Z,10.87
2023-04-24T00:13:06.670Z,10.86
2023-04-24T00:14:06.642Z,10.74
2023-04-24T00:15:06.706Z,10.76
2023-04-24T00:16:06.620Z,10.72
2023-04-24T00:17:06.687Z,10.68
2023-04-24T00:18:06.672Z,10.51
2023-04-24T00:19:06.617Z,10.49
2023-04-24T00:20:06.602Z,10.46
2023-04-24T00:21:06.598Z,10.44
2023-04-24T00:22:06.574Z,10.61
2023-04-24T00:23:06.578Z,10.49
2023-04-24T00:24:06.580Z,10.57
2023-04-24T00:25:06.555Z,10.67
2023-04-24T00:26:06.616Z,10.61
2023-04-24T00:27:06.556Z,10.59
2023-04-24T00:28:06.543Z,10.64
2023-04-24T00:29:06.533Z,10.69
2023-04-24T00:30:06.519Z,10.71
2023-04-24T00:31:06.506Z,10.78
2023-04-24T00:32:06.542Z,10.76
2023-04-24T00:33:06.525Z,10.68
2023-04-24T00:34:06.540Z,10.72
2023-04-24T00:35:06.486Z,10.76
2023-04-24T00:36:07.485Z,10.92
2023-04-24T00:37:06.458Z,10.84
2023-04-24T00:38:06.442Z,10.89
2023-04-24T00:39:07.453Z,10.90
2023-04-24T00:40:06.479Z,11.00
2023-04-24T00:41:06.472Z,10.97
2023-04-24T00:42:06.411Z,10.97
2023-04-24T00:43:07.183Z,11.00
2023-04-24T00:44:06.456Z,11.05
2023-04-24T00:45:06.452Z,11.11
2023-04-24T00:46:06.477Z,11.19
2023-04-24T00:47:06.418Z,11.17
2023-04-24T00:48:06.453Z,11.12
2023-04-24T00:49:06.381Z,11.22
2023-04-24T00:50:06.398Z,11.30
2023-04-24T00:51:06.388Z,11.29
2023-04-24T00:52:06.394Z,11.36
2023-04-24T00:53:06.393Z,11.37
2023-04-24T00:54:06.348Z,11.37
2023-04-24T00:55:06.354Z,11.43
2023-04-24T00:56:06.330Z,11.48
2023-04-24T00:57:06.316Z,11.48
2023-04-24T00:58:06.335Z,11.44
2023-04-24T00:59:06.328Z,11.45
2023-04-24T01:00:06.330Z,11.54
2023-04-24T01:01:07.255Z,11.55
2023-04-24T01:02:06.374Z,11.54
2023-04-24T01:03:06.435Z,11.51
2023-04-24T01:04:06.489Z,11.50
2023-04-24T01:05:06.292Z,11.50
2023-04-24T01:06:06.373Z,11.62
2023-04-24T01:07:06.230Z,11.50
2023-04-24T01:08:06.228Z,11.55
2023-04-24T01:09:06.197Z,11.55
2023-04-24T01:10:06.207Z,11.57
2023-04-24T01:11:06.257Z,11.54
2023-04-24T01:12:06.195Z,11.54
2023-04-24T01:13:06.175Z,11.54
2023-04-24T01:14:06.184Z,11.60
2023-04-24T01:15:06.163Z,11.52
2023-04-24T01:16:06.181Z,11.68
2023-04-24T01:17:06.162Z,11.57
2023-04-24T01:18:06.157Z,11.52
2023-04-24T01:19:06.131Z,11.50
2023-04-24T01:20:06.127Z,11.50
2023-04-24T01:21:06.127Z,11.52
2023-04-24T01:22:06.140Z,11.40
2023-04-24T01:23:06.117Z,11.40
2023-04-24T01:24:06.086Z,11.45
2023-04-24T01:25:06.192Z,11.37
2023-04-24T01:26:06.086Z,11.45
2023-04-24T01:27:06.103Z,11.35
2023-04-24T01:28:06.073Z,11.40
2023-04-24T01:29:06.060Z,11.36
2023-04-24T01:30:06.085Z,11.35
2023-04-24T01:31:06.147Z,11.33
2023-04-24T01:32:06.045Z,11.37
2023-04-24T01:33:06.684Z,11.25
2023-04-24T01:34:06.007Z,11.25
2023-04-24T01:35:06.096Z,11.17
2023-04-24T01:36:06.009Z,11.08
2023-04-24T01:37:06.004Z,11.07
2023-04-24T01:38:06.005Z,11.04
2023-04-24T01:39:05.996Z,11.14
2023-04-24T01:40:05.964Z,11.11
2023-04-24T01:41:05.966Z,11.00
2023-04-24T01:42:05.976Z,10.96
2023-04-24T01:43:05.958Z,10.89
2023-04-24T01:44:05.961Z,10.89
2023-04-24T01:45:05.952Z,10.92
2023-04-24T01:46:05.952Z,10.84
2023-04-24T01:47:05.919Z,10.82
2023-04-24T01:48:05.964Z,10.78
2023-04-24T01:49:05.902Z,10.86
2023-04-24T01:50:05.938Z,10.82
2023-04-24T01:51:05.927Z,10.82
2023-04-24T01:52:05.944Z,10.78
2023-04-24T01:53:05.878Z,10.79
2023-04-24T01:54:05.858Z,10.75
2023-04-24T01:55:05.871Z,10.68
2023-04-24T01:56:05.859Z,10.82
2023-04-24T01:57:05.852Z,10.78
2023-04-24T01:58:05.846Z,10.79
2023-04-24T01:59:05.868Z,10.79
2023-04-24T02:00:05.808Z,10.82
2023-04-24T02:01:05.847Z,10.87
2023-04-24T02:02:05.925Z,10.84
2023-04-24T02:03:06.431Z,10.90
2023-04-24T02:04:06.013Z,10.82
2023-04-24T02:05:05.798Z,10.93
2023-04-24T02:06:05.798Z,10.96
2023-04-24T02:07:05.781Z,10.87
2023-04-24T02:08:05.796Z,10.99
2023-04-24T02:09:05.752Z,11.10
2023-04-24T02:10:05.759Z,10.97
2023-04-24T02:11:05.762Z,10.99
2023-04-24T02:12:05.753Z,11.12
2023-04-24T02:13:05.754Z,11.07
2023-04-24T02:14:05.729Z,11.05
2023-04-24T02:15:05.703Z,11.11
2023-04-24T02:16:05.725Z,11.18
2023-04-24T02:17:05.704Z,11.12
2023-04-24T02:18:05.788Z,11.07
2023-04-24T02:19:05.679Z,11.19
2023-04-24T02:20:05.661Z,11.15
2023-04-24T02:21:05.664Z,11.17
2023-04-24T02:22:05.652Z,11.25
2023-04-24T02:23:05.658Z,11.18
2023-04-24T02:24:05.664Z,11.18
2023-04-24T02:25:05.648Z,11.17
2023-04-24T02:26:05.674Z,11.23
2023-04-24T02:27:05.614Z,11.18
2023-04-24T02:28:05.634Z,11.22
2023-04-24T02:29:05.595Z,11.27
2023-04-24T02:30:05.603Z,11.23
2023-04-24T02:31:05.621Z,11.25
2023-04-24T02:32:05.607Z,11.32
2023-04-24T02:33:05.660Z,11.32
2023-04-24T02:34:05.621Z,11.30
2023-04-24T02:35:05.573Z,11.36
2023-04-24T02:36:05.541Z,11.35
2023-04-24T02:37:05.513Z,11.33
2023-04-24T02:38:05.518Z,11.45
2023-04-24T02:39:05.542Z,11.45
2023-04-24T02:40:05.515Z,11.54
2023-04-24T02:41:05.492Z,11.51
2023-04-24T02:42:05.489Z,11.59
2023-04-24T02:43:05.502Z,11.63
2023-04-24T02:44:05.577Z,11.55
2023-04-24T02:45:05.477Z,11.51
2023-04-24T02:46:05.561Z,11.55
2023-04-24T02:47:05.469Z,11.54
2023-04-24T02:48:05.465Z,11.55
2023-04-24T02:49:05.454Z,11.57
2023-04-24T02:50:05.451Z,11.52
2023-04-24T02:51:05.444Z,11.55
2023-04-24T02:52:05.410Z,11.59
2023-04-24T02:53:05.426Z,11.59
2023-04-24T02:54:05.405Z,11.73
2023-04-24T02:55:05.395Z,11.63
2023-04-24T02:56:05.463Z,11.63
2023-04-24T02:57:05.402Z,11.69
2023-04-24T02:58:05.372Z,11.66
2023-04-24T02:59:05.351Z,11.66
2023-04-24T03:00:05.355Z,11.63
2023-04-24T03:01:05.384Z,11.70
2023-04-24T03:02:05.375Z,11.62
2023-04-24T03:03:05.541Z,11.65
2023-04-24T03:04:05.422Z,11.68
2023-04-24T03:05:05.373Z,11.77
2023-04-24T03:06:05.344Z,11.83
2023-04-24T03:07:05.326Z,11.78
2023-04-24T03:08:05.289Z,11.77
2023-04-24T03:09:05.301Z,11.86
2023-04-24T03:10:05.271Z,11.84
2023-04-24T03:11:05.299Z,11.80
2023-04-24T03:12:05.276Z,11.83
2023-04-24T03:13:05.307Z,11.88
2023-04-24T03:14:05.243Z,11.84
2023-04-24T03:15:06.242Z,11.81
2023-04-24T03:16:05.323Z,11.75
2023-04-24T03:17:05.227Z,11.84
2023-04-24T03:18:05.253Z,11.80
2023-04-24T03:19:05.214Z,11.81
2023-04-24T03:20:05.193Z,11.80
2023-04-24T03:21:05.201Z,11.84
2023-04-24T03:22:05.187Z,11.86
2023-04-24T03:23:05.204Z,11.87
2023-04-24T03:24:05.174Z,11.86
2023-04-24T03:25:05.161Z,11.78
2023-04-24T03:26:05.149Z,11.80
2023-04-24T03:27:05.131Z,11.86
2023-04-24T03:28:05.152Z,11.88
2023-04-24T03:29:05.148Z,11.81
2023-04-24T03:30:05.117Z,11.88
2023-04-24T03:31:05.163Z,11.84
2023-04-24T03:32:05.114Z,11.88
2023-04-24T03:33:05.202Z,11.84
2023-04-24T03:34:05.114Z,11.80
2023-04-24T03:35:05.084Z,11.72
2023-04-24T03:36:05.093Z,11.69
2023-04-24T03:37:05.061Z,11.69
2023-04-24T03:38:05.081Z,11.68
2023-04-24T03:39:05.078Z,11.65
2023-04-24T03:40:05.675Z,11.68
2023-04-24T03:41:05.039Z,11.60
2023-04-24T03:42:06.020Z,11.59
2023-04-24T03:43:05.034Z,11.63
2023-04-24T03:44:05.017Z,11.54
2023-04-24T03:45:05.090Z,11.60
2023-04-24T03:46:05.037Z,11.59
2023-04-24T04:02:03.573Z,11.32
2023-04-24T04:03:03.722Z,11.43
2023-04-24T04:04:03.567Z,11.32
2023-04-24T04:05:03.483Z,11.35
2023-04-24T04:06:03.383Z,11.40
2023-04-24T04:07:03.390Z,11.32
2023-04-24T04:08:03.383Z,11.40
2023-04-24T04:09:03.409Z,11.32
2023-04-24T04:10:04.563Z,11.40
2023-04-24T04:11:05.542Z,11.47
2023-04-24T04:12:05.468Z,11.43
2023-04-24T04:13:04.460Z,11.43
2023-04-24T04:14:04.479Z,11.35
2023-04-24T04:15:04.442Z,11.35
2023-04-24T04:16:04.586Z,11.40
2023-04-24T04:17:04.435Z,11.35
2023-04-24T04:18:04.543Z,11.44
2023-04-24T04:19:04.429Z,11.44
2023-04-24T04:20:04.417Z,11.41
2023-04-24T04:21:04.567Z,11.40
2023-04-24T04:22:04.420Z,11.36
2023-04-24T04:23:04.404Z,11.41
2023-04-24T04:24:04.378Z,11.26
2023-04-24T04:25:04.371Z,11.25
2023-04-24T04:26:04.436Z,11.19
2023-04-24T04:27:05.385Z,11.14
2023-04-24T04:28:04.363Z,11.18
2023-04-24T04:29:04.342Z,11.10
2023-04-24T04:30:04.338Z,11.14
2023-04-24T04:31:04.355Z,11.18
2023-04-24T04:32:04.348Z,11.18
2023-04-24T04:33:04.344Z,11.15
2023-04-24T04:34:04.321Z,11.10
2023-04-24T04:35:04.343Z,11.17
2023-04-24T04:36:04.285Z,11.14
2023-04-24T04:37:04.682Z,11.27
2023-04-24T04:38:04.280Z,11.22
2023-04-24T04:39:04.257Z,11.18
2023-04-24T04:40:04.265Z,11.18
2023-04-24T04:41:04.248Z,11.23
2023-04-24T04:42:05.107Z,11.17
2023-04-24T04:43:05.035Z,11.26
2023-04-24T04:44:04.221Z,11.26
2023-04-24T04:45:04.228Z,11.32
2023-04-24T04:46:04.244Z,11.26
2023-04-24T04:47:04.235Z,11.36
2023-04-24T04:48:04.217Z,11.29
2023-04-24T04:49:04.184Z,11.25
2023-04-24T04:50:04.153Z,11.27
2023-04-24T04:51:04.174Z,11.37
2023-04-24T04:52:04.147Z,11.36
2023-04-24T04:53:04.185Z,11.27
2023-04-24T04:54:04.149Z,11.43
2023-04-24T04:55:04.133Z,11.30
2023-04-24T04:56:04.128Z,11.33
2023-04-24T04:57:04.412Z,11.43
2023-04-24T04:58:05.148Z,11.44
2023-04-24T04:59:04.158Z,11.43
2023-04-24T05:00:04.108Z,11.41
2023-04-24T05:01:04.154Z,11.35
2023-04-24T05:02:04.102Z,11.40
2023-04-24T05:03:19.290Z,11.57
2023-04-24T05:04:06.219Z,11.45
2023-04-24T05:05:04.290Z,11.54
2023-04-24T05:06:04.089Z,11.55
2023-04-24T05:07:04.076Z,11.52
2023-04-24T05:08:05.658Z,11.52
2023-04-24T05:09:04.050Z,11.52
2023-04-24T05:10:04.086Z,11.51
2023-04-24T05:11:04.013Z,11.54
2023-04-24T05:12:04.015Z,11.51
2023-04-24T05:13:04.000Z,11.55
2023-04-24T05:14:04.003Z,11.57
2023-04-24T05:15:03.998Z,11.55
2023-04-24T05:16:04.011Z,11.60
2023-04-24T05:17:04.062Z,12.07
2023-04-24T05:18:04.096Z,12.20
2023-04-24T05:19:03.968Z,12.31
2023-04-24T05:20:04.013Z,12.17
2023-04-24T05:21:03.939Z,12.25
2023-04-24T05:22:04.609Z,12.37
2023-04-24T05:23:03.964Z,12.24
2023-04-24T05:24:03.939Z,12.27
2023-04-24T05:25:03.947Z,12.18
2023-04-24T05:26:06.172Z,12.12
2023-04-24T05:27:03.900Z,12.09
2023-04-24T05:28:03.917Z,12.61
2023-04-24T05:29:03.871Z,12.47
2023-04-24T05:30:03.871Z,12.28
2023-04-24T05:31:03.953Z,12.15
2023-04-24T05:32:03.841Z,12.10
2023-04-24T05:33:03.904Z,12.04
2023-04-24T05:34:03.848Z,11.72
2023-04-24T05:35:03.865Z,11.80
2023-04-24T05:36:03.823Z,11.68
2023-04-24T05:37:03.824Z,11.68
2023-04-24T05:38:03.828Z,11.69
2023-04-24T05:39:03.918Z,11.70
2023-04-24T05:40:03.829Z,11.62
2023-04-24T05:41:03.785Z,11.59
2023-04-24T05:42:03.771Z,11.72
2023-04-24T05:43:03.800Z,11.65
2023-04-24T05:44:03.777Z,11.59
2023-04-24T05:45:03.745Z,11.57
2023-04-24T05:46:03.797Z,11.52
2023-04-24T05:47:03.727Z,11.59
2023-04-24T05:48:03.801Z,11.55
2023-04-24T05:49:03.742Z,11.51
2023-04-24T05:50:03.717Z,11.43
2023-04-24T05:51:03.693Z,11.51
2023-04-24T05:52:03.721Z,11.40
2023-04-24T05:53:03.721Z,11.44
2023-04-24T05:54:03.709Z,11.37
2023-04-24T05:55:03.712Z,11.27
2023-04-24T05:56:03.703Z,11.25
2023-04-24T05:57:03.653Z,11.26
2023-04-24T05:58:03.646Z,11.55
2023-04-24T05:59:03.655Z,11.48
2023-04-24T06:00:03.667Z,12.22
2023-04-24T06:01:03.633Z,12.57
2023-04-24T06:02:03.671Z,12.85
2023-04-24T06:03:04.077Z,13.30
2023-04-24T06:04:03.704Z,13.53
2023-04-24T06:05:03.754Z,13.92
2023-04-24T06:06:03.638Z,13.90
2023-04-24T06:07:03.574Z,13.30
2023-04-24T06:08:03.565Z,12.62
2023-04-24T06:09:03.572Z,12.40
2023-04-24T06:10:03.592Z,12.50
2023-04-24T06:11:04.835Z,12.29
2023-04-24T06:12:04.545Z,12.03
2023-04-24T06:13:03.612Z,12.43
2023-04-24T06:14:03.637Z,12.27
2023-04-24T06:15:03.517Z,12.21
2023-04-24T06:16:03.542Z,12.18
2023-04-24T06:17:03.587Z,12.73
2023-04-24T06:18:03.540Z,13.19
2023-04-24T06:19:03.510Z,13.60
2023-04-24T06:20:03.484Z,13.89
2023-04-24T06:21:03.547Z,14.11
2023-04-24T06:22:04.474Z,13.47
2023-04-24T06:23:03.509Z,13.68
2023-04-24T06:24:03.451Z,13.70
2023-04-24T06:25:03.480Z,14.10
2023-04-24T06:26:03.449Z,14.54
2023-04-24T06:27:03.493Z,14.82
2023-04-24T06:28:03.469Z,14.62
2023-04-24T06:29:03.406Z,13.75
2023-04-24T06:30:03.413Z,13.72
2023-04-24T06:31:03.513Z,13.27
2023-04-24T06:32:03.430Z,13.46
2023-04-24T06:33:16.884Z,13.60
2023-04-24T06:34:05.352Z,13.42
2023-04-24T06:35:03.345Z,13.70
2023-04-24T06:36:03.354Z,13.23
2023-04-24T06:37:03.377Z,12.75
2023-04-24T06:38:03.334Z,13.49
2023-04-24T06:39:03.330Z,14.30
2023-04-24T06:40:03.979Z,14.86
2023-04-24T06:41:03.322Z,14.85
2023-04-24T06:42:03.348Z,14.20
2023-04-24T06:43:03.991Z,13.79
2023-04-24T06:44:03.298Z,13.86
2023-04-24T06:45:03.320Z,14.43
2023-04-24T06:46:03.318Z,14.62
2023-04-24T06:47:03.281Z,14.65
2023-04-24T06:48:03.394Z,14.78
2023-04-24T06:49:03.251Z,14.62
2023-04-24T06:50:03.305Z,14.79
2023-04-24T06:51:03.252Z,14.99
2023-04-24T06:52:03.263Z,14.79
2023-04-24T06:53:03.275Z,14.91
2023-04-24T06:54:03.215Z,14.81
2023-04-24T06:55:03.254Z,14.89
2023-04-24T06:56:03.189Z,14.77
2023-04-24T06:57:03.261Z,14.36
2023-04-24T06:58:03.223Z,13.70
2023-04-24T06:59:03.209Z,13.33
2023-04-24T07:00:03.175Z,13.99
2023-04-24T07:01:03.198Z,14.59
2023-04-24T07:02:03.175Z,15.06
2023-04-24T07:03:03.284Z,14.88
2023-04-24T07:04:03.385Z,14.73
2023-04-24T07:05:03.181Z,15.25
2023-04-24T07:06:03.237Z,15.58
2023-04-24T07:07:03.155Z,15.24
2023-04-24T07:08:03.145Z,15.03
2023-04-24T07:09:03.232Z,15.11
2023-04-24T07:10:03.115Z,15.40
2023-04-24T07:11:03.083Z,15.19
2023-04-24T07:12:03.138Z,15.06
2023-04-24T07:13:03.081Z,15.17
2023-04-24T07:14:03.262Z,15.55
2023-04-24T07:15:03.094Z,15.57
2023-04-24T07:16:03.101Z,15.72
2023-04-24T07:17:03.091Z,16.00
2023-04-24T07:18:05.492Z,15.98
2023-04-24T07:19:04.052Z,16.47
2023-04-24T07:20:03.067Z,16.87
2023-04-24T07:21:03.018Z,16.76
2023-04-24T07:22:02.996Z,16.39
2023-04-24T07:23:03.079Z,16.43
2023-04-24T07:24:02.989Z,16.91
2023-04-24T07:25:02.994Z,16.61
2023-04-24T07:26:03.008Z,16.66
2023-04-24T07:27:02.990Z,16.39
2023-04-24T07:28:02.982Z,16.65
2023-04-24T07:29:02.940Z,16.74
2023-04-24T07:30:02.930Z,16.68
2023-04-24T07:31:02.957Z,16.50
2023-04-24T07:32:04.360Z,16.66
2023-04-24T07:33:03.971Z,16.79
2023-04-24T07:34:02.916Z,17.27
2023-04-24T07:35:02.941Z,17.94
2023-04-24T07:36:02.906Z,17.71
2023-04-24T07:37:02.952Z,17.79
2023-04-24T07:38:02.929Z,17.31
2023-04-24T07:39:02.977Z,16.15
2023-04-24T07:40:02.864Z,15.33
2023-04-24T07:41:02.871Z,15.27
2023-04-24T07:42:02.857Z,15.49
2023-04-24T07:43:02.844Z,15.86
2023-04-24T07:44:02.877Z,15.62
2023-04-24T07:45:02.809Z,14.99
2023-04-24T07:46:02.837Z,14.45
2023-04-24T07:47:02.811Z,13.81
2023-04-24T07:48:02.940Z,14.63
2023-04-24T07:49:13.126Z,15.59
2023-04-24T07:50:04.827Z,15.65
2023-04-24T07:51:02.792Z,15.03
2023-04-24T07:52:02.768Z,15.31
2023-04-24T07:53:02.832Z,15.98
2023-04-24T07:54:02.770Z,15.29
2023-04-24T07:55:02.752Z,14.78
2023-04-24T07:56:02.774Z,14.41
2023-04-24T07:57:02.836Z,13.68
2023-04-24T07:58:02.758Z,13.41
2023-04-24T07:59:02.838Z,13.52
2023-04-24T08:00:02.700Z,13.41
2023-04-24T08:01:02.714Z,13.11
2023-04-24T08:02:02.692Z,13.00
2023-04-24T08:03:02.870Z,13.00
2023-04-24T08:04:02.886Z,13.33
2023-04-24T08:05:02.915Z,13.19
2023-04-24T08:06:02.836Z,12.93
2023-04-24T08:07:02.647Z,12.97
2023-04-24T08:08:02.646Z,13.12
2023-04-24T08:09:02.635Z,12.87
2023-04-24T08:10:02.689Z,12.95
2023-04-24T08:11:02.647Z,12.86
2023-04-24T08:12:02.631Z,12.53
2023-04-24T08:13:02.707Z,12.50
2023-04-24T08:14:02.654Z,12.36
2023-04-24T08:15:02.673Z,12.32
2023-04-24T08:16:02.675Z,12.61
2023-04-24T08:17:02.599Z,13.16
2023-04-24T08:18:02.683Z,13.16
2023-04-24T08:19:02.612Z,13.13
2023-04-24T08:20:02.784Z,13.30
2023-04-24T08:21:02.628Z,13.13
2023-04-24T08:22:02.606Z,12.98
2023-04-24T08:23:02.618Z,12.75
2023-04-24T08:24:03.510Z,12.49
2023-04-24T08:25:02.583Z,12.57
2023-04-24T08:26:02.578Z,12.75
2023-04-24T08:27:02.506Z,12.93
2023-04-24T08:28:02.479Z,13.53
2023-04-24T08:29:02.504Z,13.41
2023-04-24T08:30:02.482Z,13.22
2023-04-24T08:31:02.488Z,13.01
2023-04-24T08:32:02.739Z,13.41
2023-04-24T08:33:02.504Z,13.41
2023-04-24T08:34:02.429Z,13.23
2023-04-24T08:35:02.456Z,13.08
2023-04-24T08:36:02.426Z,13.09
2023-04-24T08:37:02.458Z,13.03
2023-04-24T08:38:02.426Z,12.94
2023-04-24T08:39:02.397Z,12.90
2023-04-24T08:40:02.378Z,12.79
2023-04-24T08:41:02.403Z,12.87
2023-04-24T08:42:02.443Z,13.01
2023-04-24T08:43:02.363Z,13.19
2023-04-24T08:44:03.386Z,13.09
2023-04-24T08:45:02.330Z,13.08
2023-04-24T08:46:05.566Z,13.13
2023-04-24T08:47:02.325Z,13.09
2023-04-24T08:48:02.488Z,13.00
2023-04-24T08:49:02.342Z,12.98
2023-04-24T08:50:02.379Z,12.94
2023-04-24T08:51:02.330Z,12.80
2023-04-24T08:52:02.275Z,12.93
2023-04-24T08:53:04.467Z,13.08
2023-04-24T08:54:02.269Z,13.15
2023-04-24T08:55:02.279Z,13.05
2023-04-24T08:56:02.275Z,13.09
2023-04-24T08:57:02.285Z,13.05
2023-04-24T08:58:02.253Z,13.27
2023-04-24T08:59:02.252Z,13.22
2023-04-24T09:00:02.278Z,13.20
2023-04-24T09:01:02.247Z,13.23
2023-04-24T09:02:02.222Z,13.87
2023-04-24T09:03:02.333Z,13.68
2023-04-24T09:04:02.381Z,13.44
2023-04-24T09:05:02.224Z,13.23
2023-04-24T09:06:02.193Z,13.31
2023-04-24T09:07:02.183Z,13.33
2023-04-24T09:08:02.176Z,13.20
2023-04-24T09:09:02.211Z,13.57
2023-04-24T09:10:02.176Z,13.53
2023-04-24T09:11:02.200Z,13.56
2023-04-24T09:12:02.164Z,13.62
2023-04-24T09:13:02.127Z,14.30
2023-04-24T09:14:02.159Z,15.06
2023-04-24T09:15:02.171Z,15.37
2023-04-24T09:16:02.177Z,15.29
2023-04-24T09:17:02.221Z,14.89
2023-04-24T09:18:02.134Z,14.53
2023-04-24T09:19:02.167Z,14.41
2023-04-24T09:20:02.117Z,14.32
2023-04-24T09:21:02.117Z,14.17
2023-04-24T09:22:02.053Z,14.47
2023-04-24T09:23:02.058Z,14.30
2023-04-24T09:24:02.137Z,14.15
2023-04-24T09:25:02.045Z,14.17
2023-04-24T09:26:02.021Z,14.36
2023-04-24T09:27:02.062Z,14.17
2023-04-24T09:28:02.756Z,14.08
2023-04-24T09:29:02.014Z,13.85
2023-04-24T09:30:02.038Z,13.83
2023-04-24T09:31:02.009Z,13.79
2023-04-24T09:32:02.144Z,13.67
2023-04-24T09:33:02.037Z,13.49
2023-04-24T09:34:02.578Z,13.42
2023-04-24T09:35:03.023Z,13.27
2023-04-24T09:36:01.952Z,13.08
2023-04-24T09:37:01.968Z,13.20
2023-04-24T09:38:01.939Z,13.04
2023-04-24T09:39:01.992Z,13.04
2023-04-24T09:40:01.973Z,12.95
2023-04-24T09:41:01.898Z,13.01
2023-04-24T09:42:01.903Z,12.93
2023-04-24T09:43:01.901Z,12.90
2023-04-24T09:44:01.923Z,12.93
2023-04-24T09:45:11.973Z,13.25
2023-04-24T09:46:03.894Z,13.28
2023-04-24T09:47:01.880Z,13.57
2023-04-24T09:48:01.945Z,13.56
2023-04-24T09:49:02.642Z,13.74
2023-04-24T09:50:01.866Z,13.62
2023-04-24T09:51:01.847Z,13.42
2023-04-24T09:52:01.881Z,13.41
2023-04-24T09:53:01.828Z,13.37
2023-04-24T09:54:01.802Z,13.33
2023-04-24T09:55:01.885Z,13.39
2023-04-24T09:56:01.816Z,13.20
2023-04-24T09:57:01.807Z,13.28
2023-04-24T09:58:33.715Z,13.19
2023-04-24T09:59:34.578Z,13.03
2023-04-24T10:00:34.216Z,12.94
2023-04-24T10:01:34.283Z,12.79
2023-04-24T10:02:01.812Z,12.93
2023-04-24T10:03:33.717Z,12.82
2023-04-24T10:04:01.744Z,12.86
2023-04-24T10:05:34.263Z,12.98
2023-04-24T10:06:01.734Z,13.11
2023-04-24T10:07:01.717Z,13.12
2023-04-24T10:08:01.721Z,12.94
2023-04-24T10:09:01.723Z,12.78
2023-04-24T10:10:01.772Z,12.76
2023-04-24T10:11:01.685Z,12.65
2023-04-24T10:12:01.688Z,12.57
2023-04-24T10:13:01.710Z,12.57
2023-04-24T10:14:01.661Z,12.36
2023-04-24T10:15:01.638Z,12.24
2023-04-24T10:16:01.669Z,12.27
2023-04-24T10:17:01.643Z,12.21
2023-04-24T10:18:01.689Z,12.20
2023-04-24T10:19:01.622Z,12.12
2023-04-24T10:20:01.604Z,12.09
2023-04-24T10:21:01.608Z,12.02
2023-04-24T10:22:01.627Z,12.02
2023-04-24T10:23:01.607Z,11.94
2023-04-24T10:24:01.564Z,12.00
2023-04-24T10:25:01.589Z,11.86
2023-04-24T10:26:01.644Z,12.04
2023-04-24T10:27:01.552Z,12.12
2023-04-24T10:28:01.529Z,12.07
2023-04-24T10:29:01.538Z,12.07
2023-04-24T10:30:01.600Z,12.06
2023-04-24T10:31:01.558Z,12.13
2023-04-24T10:32:01.539Z,12.09
2023-04-24T10:33:01.560Z,12.13
2023-04-24T10:34:01.504Z,12.24
2023-04-24T10:35:01.541Z,12.18
2023-04-24T10:36:01.509Z,12.28
2023-04-24T10:37:01.514Z,12.39
2023-04-24T10:38:01.532Z,12.54
2023-04-24T10:39:01.482Z,12.67
2023-04-24T10:40:01.554Z,12.79
2023-04-24T10:41:01.476Z,12.91
2023-04-24T10:42:01.524Z,13.09
2023-04-24T10:43:01.490Z,13.11
2023-04-24T10:44:01.468Z,13.16
2023-04-24T10:45:01.481Z,13.22
2023-04-24T10:46:01.445Z,13.56
2023-04-24T10:47:01.511Z,13.60
2023-04-24T10:48:03.438Z,13.42
2023-04-24T10:49:01.378Z,13.27
2023-04-24T10:50:01.489Z,13.39
2023-04-24T10:51:01.429Z,13.41
2023-04-24T10:52:01.378Z,13.28
2023-04-24T10:53:01.373Z,13.18
2023-04-24T10:54:01.351Z,13.05
2023-04-24T10:55:01.330Z,13.03
2023-04-24T10:56:01.444Z,13.01
2023-04-24T10:57:02.418Z,12.87
2023-04-24T10:58:01.324Z,12.79
2023-04-24T10:59:01.342Z,12.65
2023-04-24T11:00:01.318Z,12.46
2023-04-24T11:01:01.394Z,12.40
2023-04-24T11:02:01.796Z,12.27
2023-04-24T11:03:01.561Z,11.97
2023-04-24T11:04:01.459Z,11.91
2023-04-24T11:05:02.324Z,11.70
2023-04-24T11:06:01.349Z,11.51
2023-04-24T11:07:01.329Z,11.52
2023-04-24T11:08:01.299Z,11.41
2023-04-24T11:09:01.249Z,11.57
2023-04-24T11:10:01.204Z,11.66
2023-04-24T11:11:01.242Z,11.83
2023-04-24T11:12:01.219Z,11.87
2023-04-24T11:13:01.249Z,12.17
2023-04-24T11:14:01.188Z,12.27
2023-04-24T11:15:01.563Z,12.54
2023-04-24T11:16:01.247Z,12.65
2023-04-24T11:17:01.267Z,12.62
2023-04-24T11:18:01.273Z,12.57
2023-04-24T11:19:01.181Z,12.70
2023-04-24T11:20:04.831Z,12.57
2023-04-24T11:21:02.189Z,12.39
2023-04-24T11:22:01.177Z,12.40
2023-04-24T11:23:01.200Z,12.75
2023-04-24T11:24:01.128Z,13.01
2023-04-24T11:25:01.234Z,13.22
2023-04-24T11:26:01.264Z,13.20
2023-04-24T11:27:01.089Z,13.16
2023-04-24T11:28:01.115Z,13.33
2023-04-24T11:29:01.349Z,13.23
2023-04-24T11:30:01.383Z,13.39
2023-04-24T11:31:01.072Z,13.20
2023-04-24T11:32:01.090Z,13.16
2023-04-24T11:33:01.164Z,12.90
2023-04-24T11:34:01.074Z,12.82
2023-04-24T11:35:01.045Z,12.91
2023-04-24T11:36:01.035Z,12.73
2023-04-24T11:37:01.065Z,12.86
2023-04-24T11:39:02.038Z,12.55
2023-04-24T11:40:02.086Z,12.58
2023-04-24T11:41:00.986Z,12.43
2023-04-24T11:42:01.090Z,12.31
2023-04-24T11:43:00.988Z,12.32
2023-04-24T11:44:00.961Z,12.13
2023-04-24T11:45:01.338Z,12.15
2023-04-24T11:46:01.233Z,12.06
2023-04-24T11:47:01.967Z,12.04
2023-04-24T11:48:00.935Z,12.00
2023-04-24T11:49:00.920Z,11.99
2023-04-24T11:50:01.659Z,12.04
2023-04-24T11:51:00.930Z,12.17
2023-04-24T11:52:01.367Z,12.32
2023-04-24T11:53:01.889Z,12.28
2023-04-24T11:54:04.419Z,12.24
2023-04-24T11:55:02.246Z,12.21
2023-04-24T11:56:00.887Z,12.25
2023-04-24T11:57:00.874Z,12.17
2023-04-24T11:58:00.946Z,12.22
2023-04-24T11:59:00.864Z,12.20
2023-04-24T12:00:01.152Z,12.27
2023-04-24T12:01:00.835Z,12.27
2023-04-24T12:02:00.907Z,12.21
2023-04-24T12:03:01.046Z,12.13
2023-04-24T12:04:01.004Z,12.22
2023-04-24T12:05:01.137Z,12.21
2023-04-24T12:06:00.812Z,12.28
2023-04-24T12:07:00.770Z,12.22
2023-04-24T12:08:00.853Z,12.24
2023-04-24T12:09:04.778Z,12.46
2023-04-24T12:10:03.293Z,12.37
2023-04-24T12:11:00.775Z,12.49
2023-04-24T12:12:00.803Z,12.50
2023-04-24T12:13:00.749Z,12.68
2023-04-24T12:14:00.709Z,12.78
2023-04-24T12:15:01.125Z,12.79
2023-04-24T12:16:00.829Z,12.76
2023-04-24T12:17:00.727Z,12.85
2023-04-24T12:18:00.917Z,12.83
2023-04-24T12:19:00.694Z,12.76
2023-04-24T12:20:00.691Z,12.76
2023-04-24T12:21:01.323Z,12.60
2023-04-24T12:22:01.668Z,12.73
2023-04-24T12:23:00.711Z,12.58
2023-04-24T12:24:00.727Z,12.64
2023-04-24T12:25:00.664Z,12.64
2023-04-24T12:26:00.635Z,12.58
2023-04-24T12:27:00.618Z,12.58
2023-04-24T12:28:00.665Z,12.61
2023-04-24T12:29:00.596Z,12.78
2023-04-24T12:30:00.610Z,12.91
2023-04-24T12:31:00.686Z,12.80
2023-04-24T12:32:00.633Z,12.93
2023-04-24T12:33:01.772Z,13.05
2023-04-24T12:34:00.620Z,13.15
2023-04-24T12:35:00.576Z,13.20
2023-04-24T12:36:00.607Z,13.31
2023-04-24T12:37:00.650Z,13.46
2023-04-24T12:38:00.638Z,13.52
2023-04-24T12:39:00.634Z,13.39
2023-04-24T12:40:00.528Z,13.35
2023-04-24T12:41:00.534Z,13.18
2023-04-24T12:42:00.554Z,13.11
2023-04-24T12:43:00.521Z,12.90
2023-04-24T12:44:00.711Z,12.91
2023-04-24T12:45:01.566Z,12.76
2023-04-24T12:46:00.481Z,12.58
2023-04-24T12:47:00.729Z,12.70
2023-04-24T12:48:00.678Z,12.65
2023-04-24T12:49:00.957Z,12.73
2023-04-24T12:50:00.470Z,13.12
2023-04-24T12:51:00.451Z,13.19
2023-04-24T12:52:00.647Z,13.39
2023-04-24T12:53:00.523Z,13.62
2023-04-24T12:54:00.842Z,13.99
2023-04-24T12:55:00.461Z,14.29
2023-04-24T12:56:00.392Z,14.28
2023-04-24T12:57:00.455Z,14.36
2023-04-24T12:58:00.387Z,14.18
2023-04-24T12:59:00.575Z,14.35
2023-04-24T13:00:00.390Z,14.48
2023-04-24T13:01:00.377Z,14.36
2023-04-24T13:02:00.417Z,14.45
2023-04-24T13:03:00.608Z,14.44
2023-04-24T13:04:00.550Z,14.36
2023-04-24T13:05:00.336Z,14.10
2023-04-24T13:06:01.382Z,14.12
2023-04-24T13:07:00.345Z,14.22
2023-04-24T13:08:00.333Z,13.95